createdAt,value
2019-01-02T00:03:59.912Z,4.59
2019-01-02T00:08:07.397Z,4.55
2019-01-02T00:12:15.515Z,4.54
2019-01-02T00:16:22.523Z,4.60
2019-01-02T00:20:29.461Z,4.58
2019-01-02T00:24:36.450Z,4.66
2019-01-02T00:28:52.800Z,4.71
2019-01-02T00:33:01.392Z,4.77
2019-01-02T00:37:08.450Z,4.81
2019-01-02T00:41:16.346Z,4.70
2019-01-02T00:45:24.218Z,4.54
2019-01-02T00:49:31.100Z,4.46
2019-01-02T00:53:41.173Z,4.49
2019-01-02T00:57:48.150Z,4.52
2019-01-02T01:01:55.081Z,4.52
2019-01-02T01:06:02.547Z,4.62
2019-01-02T01:10:14.905Z,4.66
2019-01-02T01:14:22.319Z,4.75
2019-01-02T01:18:29.322Z,4.72
2019-01-02T01:22:37.075Z,4.77
2019-01-02T01:26:44.054Z,4.53
2019-01-02T01:30:53.654Z,4.48
2019-01-02T01:35:00.643Z,4.37
2019-01-02T01:39:10.013Z,4.43
2019-01-02T01:43:20.621Z,4.44
2019-01-02T01:47:29.020Z,4.42
2019-01-02T01:51:37.097Z,4.37
2019-01-02T01:55:44.197Z,4.36
2019-01-02T01:59:58.015Z,4.41
2019-01-02T02:04:05.469Z,4.41
2019-01-02T02:08:12.460Z,4.44
2019-01-02T02:12:19.431Z,4.38
2019-01-02T02:16:26.872Z,4.37
2019-01-02T02:24:40.639Z,4.36
2019-01-02T02:28:48.043Z,4.42
2019-01-02T02:32:55.342Z,4.39
2019-01-02T02:37:02.330Z,4.37
2019-01-02T02:41:09.315Z,4.34
2019-01-02T02:45:17.913Z,4.33
2019-01-02T02:49:25.324Z,4.32
2019-01-02T02:53:32.471Z,4.31
2019-01-02T02:57:39.964Z,4.27
2019-01-02T03:01:48.126Z,4.25
2019-01-02T03:05:55.446Z,4.23
2019-01-02T03:10:04.064Z,4.20
2019-01-02T03:14:11.460Z,4.22
2019-01-02T03:18:18.805Z,4.22
2019-01-02T03:22:26.018Z,4.24
2019-01-02T03:26:33.357Z,4.28
2019-01-02T03:30:40.268Z,4.26
2019-01-02T03:34:47.578Z,4.24
2019-01-02T03:38:54.489Z,4.20
2019-01-02T03:43:01.415Z,4.26
2019-01-02T03:47:08.332Z,4.24
2019-01-02T03:51:15.352Z,4.31
2019-01-02T03:55:23.368Z,4.32
2019-01-02T03:59:33.459Z,4.29
2019-01-02T04:03:40.317Z,4.24
2019-01-02T04:07:59.121Z,4.21
2019-01-02T04:12:07.442Z,4.22
2019-01-02T04:16:14.613Z,4.16
2019-01-02T04:20:21.626Z,4.10
2019-01-02T04:24:28.453Z,4.07
2019-01-02T04:28:35.790Z,4.03
2019-01-02T04:32:42.801Z,4.00
2019-01-02T04:36:50.111Z,4.02
2019-01-02T04:40:57.094Z,4.03
2019-01-02T04:45:04.889Z,4.07
2019-01-02T04:49:12.000Z,4.09
2019-01-02T04:53:18.932Z,4.10
2019-01-02T04:57:25.897Z,4.07
2019-01-02T05:01:32.912Z,4.06
2019-01-02T05:05:39.936Z,4.05
2019-01-02T05:09:46.850Z,4.04
2019-01-02T05:13:53.717Z,4.06
2019-01-02T05:18:00.609Z,4.01
2019-01-02T05:22:09.455Z,3.99
2019-01-02T05:26:16.319Z,4.06
2019-01-02T05:30:23.230Z,4.11
2019-01-02T05:34:30.195Z,4.13
2019-01-02T05:38:37.184Z,4.17
2019-01-02T05:42:44.151Z,4.21
2019-01-02T05:46:51.195Z,4.21
2019-01-02T05:50:58.147Z,4.19
2019-01-02T05:55:07.828Z,4.21
2019-01-02T05:59:14.806Z,4.19
2019-01-02T06:03:21.752Z,4.20
2019-01-02T06:07:28.673Z,4.23
2019-01-02T06:11:35.748Z,4.24
2019-01-02T06:15:42.826Z,4.22
2019-01-02T06:19:49.855Z,4.23
2019-01-02T06:23:56.833Z,4.14
2019-01-02T06:28:03.923Z,4.09
2019-01-02T06:32:14.353Z,4.10
2019-01-02T06:36:21.551Z,4.04
2019-01-02T06:40:28.462Z,4.22
2019-01-02T06:44:35.357Z,4.53
2019-01-02T06:48:42.266Z,4.45
2019-01-02T06:52:49.305Z,4.24
2019-01-02T06:56:56.367Z,4.19
2019-01-02T07:01:03.382Z,4.35
2019-01-02T07:05:11.501Z,4.26
2019-01-02T07:09:18.465Z,4.35
2019-01-02T07:13:26.516Z,4.41
2019-01-02T07:17:33.655Z,4.40
2019-01-02T07:21:40.546Z,4.43
2019-01-02T07:25:47.398Z,4.43
2019-01-02T07:29:54.388Z,4.45
2019-01-02T07:34:24.751Z,4.39
2019-01-02T07:39:15.899Z,4.17
2019-01-02T07:44:04.001Z,3.47
2019-01-02T07:49:31.891Z,3.33
2019-01-02T07:55:02.516Z,3.28
2019-01-02T08:00:10.880Z,3.13
2019-01-02T08:05:13.271Z,3.28
2019-01-02T08:10:08.316Z,3.25
2019-01-02T08:15:11.824Z,3.26
2019-01-02T08:20:33.685Z,3.40
2019-01-02T08:25:48.790Z,3.48
2019-01-02T08:30:51.247Z,3.54
2019-01-02T08:35:48.588Z,3.66
2019-01-02T08:40:43.872Z,3.57
2019-01-02T08:45:37.834Z,3.64
2019-01-02T08:50:38.396Z,3.68
2019-01-02T08:55:35.115Z,3.77
2019-01-02T09:00:46.557Z,3.62
2019-01-02T09:05:42.992Z,3.70
2019-01-02T09:11:01.788Z,3.86
2019-01-02T09:15:38.246Z,4.21
2019-01-02T09:20:39.117Z,4.24
2019-01-02T09:25:43.559Z,4.69
2019-01-02T09:30:43.905Z,4.96
2019-01-02T09:35:55.473Z,5.18
2019-01-02T09:40:52.411Z,5.41
2019-01-02T09:45:59.505Z,5.43
2019-01-02T09:50:53.098Z,5.30
2019-01-02T09:56:01.288Z,5.41
2019-01-02T10:01:01.772Z,5.36
2019-01-02T10:06:03.550Z,5.29
2019-01-02T10:10:53.860Z,5.30
2019-01-02T10:16:15.434Z,5.36
2019-01-02T10:21:13.110Z,5.27
2019-01-02T10:26:18.729Z,5.06
2019-01-02T10:31:31.028Z,5.12
2019-01-02T10:36:20.019Z,5.12
2019-01-02T10:41:11.712Z,5.04
2019-01-02T10:46:30.812Z,5.05
2019-01-02T10:51:14.850Z,5.17
2019-01-02T10:56:45.539Z,4.95
2019-01-02T11:01:50.255Z,5.22
2019-01-02T11:06:47.579Z,5.53
2019-01-02T11:11:37.830Z,6.07
2019-01-02T11:16:33.072Z,5.93
2019-01-02T11:21:41.245Z,5.88
2019-01-02T11:27:05.115Z,6.03
2019-01-02T11:32:24.138Z,5.66
2019-01-02T11:37:51.344Z,5.79
2019-01-02T11:42:36.811Z,6.61
2019-01-02T11:46:45.812Z,7.05
2019-01-02T11:50:54.419Z,6.97
2019-01-02T11:55:01.796Z,7.05
2019-01-02T11:59:09.118Z,7.34
2019-01-02T12:03:16.403Z,7.65
2019-01-02T12:07:23.610Z,8.01
2019-01-02T12:11:30.871Z,7.31
2019-01-02T12:15:38.438Z,7.15
2019-01-02T12:19:45.458Z,6.82
2019-01-02T12:23:52.512Z,6.70
2019-01-02T12:28:01.890Z,6.73
2019-01-02T12:32:08.916Z,6.41
2019-01-02T12:36:15.945Z,6.33
2019-01-02T12:40:22.892Z,6.42
2019-01-02T12:44:31.043Z,6.39
2019-01-02T12:48:38.106Z,7.93
2019-01-02T12:52:45.202Z,7.20
2019-01-02T12:56:52.238Z,7.89
2019-01-02T13:01:13.004Z,7.28
2019-01-02T13:06:34.716Z,6.71
2019-01-02T13:11:04.720Z,6.42
2019-01-02T13:15:55.724Z,6.29
2019-01-02T13:20:43.851Z,6.00
2019-01-02T13:25:16.757Z,5.94
2019-01-02T13:30:07.218Z,5.79
2019-01-02T13:35:13.669Z,5.72
2019-01-02T13:39:33.097Z,5.50
2019-01-02T13:44:44.999Z,5.51
2019-01-02T13:49:35.783Z,5.58
2019-01-02T13:53:53.534Z,5.47
2019-01-02T13:58:03.542Z,5.41
2019-01-02T14:02:12.896Z,5.39
2019-01-02T14:06:19.977Z,5.52
2019-01-02T14:10:29.004Z,5.51
2019-01-02T14:14:38.754Z,5.51
2019-01-02T14:18:57.120Z,5.53
2019-01-02T14:23:09.869Z,5.43
2019-01-02T14:27:22.941Z,5.31
2019-01-02T14:31:30.324Z,5.30
2019-01-02T14:35:41.605Z,5.21
2019-01-02T14:39:54.746Z,5.17
2019-01-02T14:44:03.956Z,5.02
2019-01-02T14:48:11.112Z,4.99
2019-01-02T14:52:19.296Z,4.90
2019-01-02T14:56:28.850Z,4.82
2019-01-02T15:00:35.930Z,4.78
2019-01-02T15:04:42.918Z,4.66
2019-01-02T15:08:50.080Z,4.60
2019-01-02T15:12:57.145Z,4.50
2019-01-02T15:17:04.138Z,4.42
2019-01-02T15:21:11.598Z,4.31
2019-01-02T15:25:20.166Z,4.25
2019-01-02T15:29:27.480Z,4.19
2019-01-02T15:33:34.382Z,4.10
2019-01-02T15:37:41.569Z,4.05
2019-01-02T15:41:48.486Z,4.00
2019-01-02T15:45:56.514Z,3.92
2019-01-02T15:50:08.551Z,3.95
2019-01-02T15:54:15.669Z,3.88
2019-01-02T15:58:25.257Z,3.83
2019-01-02T16:02:35.187Z,3.81
2019-01-02T16:06:42.124Z,3.77
2019-01-02T16:10:49.702Z,3.77
2019-01-02T16:14:56.959Z,3.68
2019-01-02T16:19:06.175Z,3.61
2019-01-02T16:23:13.387Z,3.60
2019-01-02T16:27:20.527Z,3.50
2019-01-02T16:31:27.562Z,3.50
2019-01-02T16:35:34.647Z,3.47
2019-01-02T16:39:42.159Z,3.36
2019-01-02T16:43:52.709Z,3.31
2019-01-02T16:47:59.978Z,3.19
2019-01-02T16:52:07.033Z,3.20
2019-01-02T16:56:16.414Z,3.22
2019-01-02T17:00:26.480Z,3.15
2019-01-02T17:04:36.806Z,3.10
2019-01-02T17:08:43.814Z,3.12
2019-01-02T17:12:52.868Z,3.07
2019-01-02T17:16:59.705Z,3.05
2019-01-02T17:21:07.561Z,3.05
2019-01-02T17:25:14.903Z,3.02
2019-01-02T17:29:24.215Z,3.01
2019-01-02T17:33:34.533Z,2.97
2019-01-02T17:37:41.795Z,2.93
2019-01-02T17:41:48.859Z,2.86
2019-01-02T17:45:55.940Z,2.85
2019-01-02T17:50:05.997Z,2.82
2019-01-02T17:54:14.786Z,2.84
2019-01-02T17:58:22.965Z,2.81
2019-01-02T18:02:30.131Z,2.77
2019-01-02T18:06:38.656Z,2.74
2019-01-02T18:10:45.882Z,2.73
2019-01-02T18:14:53.138Z,2.71
2019-01-02T18:19:00.531Z,2.76
2019-01-02T18:23:08.363Z,2.74
2019-01-02T18:27:15.353Z,2.63
2019-01-02T18:31:22.380Z,2.59
2019-01-02T18:35:29.559Z,2.58
2019-01-02T18:39:37.343Z,2.50
2019-01-02T18:43:45.741Z,2.46
2019-01-02T18:47:52.809Z,2.85
2019-01-02T18:52:01.963Z,3.28
2019-01-02T18:56:12.370Z,2.74
2019-01-02T19:00:25.302Z,2.54
2019-01-02T19:04:32.387Z,2.43
2019-01-02T19:08:39.927Z,2.38
2019-01-02T19:12:47.106Z,2.31
2019-01-02T19:16:54.049Z,2.24
2019-01-02T19:21:01.510Z,2.26
2019-01-02T19:25:17.690Z,2.27
2019-01-02T19:29:25.293Z,2.28
2019-01-02T19:33:32.538Z,2.25
2019-01-02T19:37:39.619Z,2.16
2019-01-02T19:41:46.639Z,2.08
2019-01-02T19:45:53.838Z,2.09
2019-01-02T19:50:01.360Z,2.01
2019-01-02T19:54:16.420Z,2.00
2019-01-02T19:58:29.938Z,1.98
2019-01-02T20:02:37.178Z,1.95
2019-01-02T20:06:50.766Z,1.91
2019-01-02T20:11:02.542Z,1.93
2019-01-02T20:15:13.578Z,2.06
2019-01-02T20:19:21.884Z,1.84
2019-01-02T20:23:29.442Z,1.92
2019-01-02T20:27:37.954Z,1.79
2019-01-02T20:31:46.333Z,1.81
2019-01-02T20:35:55.719Z,1.85
2019-01-02T20:40:03.477Z,1.90
2019-01-02T20:44:10.402Z,1.81
2019-01-02T20:48:17.534Z,1.78
2019-01-02T20:52:25.254Z,1.77
2019-01-02T20:56:32.825Z,1.68
2019-01-02T21:00:45.590Z,1.90
2019-01-02T21:04:52.738Z,1.65
2019-01-02T21:09:02.638Z,1.58
2019-01-02T21:13:11.200Z,1.54
2019-01-02T21:17:18.339Z,1.52
2019-01-02T21:21:29.297Z,1.50
2019-01-02T21:25:37.869Z,1.43
2019-01-02T21:29:45.001Z,1.44
2019-01-02T21:33:56.992Z,1.42
2019-01-02T21:38:04.028Z,1.37
2019-01-02T21:42:11.095Z,1.38
2019-01-02T21:46:18.088Z,1.37
2019-01-02T21:50:24.969Z,1.38
2019-01-02T21:54:31.944Z,1.34
2019-01-02T21:58:40.678Z,1.32
2019-01-02T22:02:47.985Z,1.57
2019-01-02T22:06:56.394Z,1.34
2019-01-02T22:11:03.327Z,1.33
2019-01-02T22:15:14.225Z,1.34
2019-01-02T22:19:21.248Z,1.38
2019-01-02T22:23:31.293Z,1.35
2019-01-02T22:27:38.543Z,1.28
2019-01-02T22:31:45.574Z,1.22
2019-01-02T22:35:52.748Z,1.21
2019-01-02T22:40:02.090Z,1.22
2019-01-02T22:44:10.143Z,1.24
2019-01-02T22:48:17.041Z,1.16
2019-01-02T22:52:25.655Z,1.18
2019-01-02T22:56:32.564Z,1.11
2019-01-02T23:01:03.659Z,1.20
2019-01-02T23:05:33.130Z,1.08
2019-01-02T23:10:06.382Z,1.11
2019-01-02T23:14:32.283Z,1.07
2019-01-02T23:18:58.213Z,1.02
2019-01-02T23:23:23.150Z,1.02
2019-01-02T23:27:45.590Z,1.01
2019-01-02T23:32:10.099Z,0.96
2019-01-02T23:36:32.366Z,0.94
2019-01-02T23:40:58.297Z,1.01
2019-01-02T23:45:23.162Z,0.95
2019-01-02T23:49:44.155Z,0.95
2019-01-02T23:54:10.049Z,1.01
2019-01-02T23:58:34.856Z,1.06
